sensor_id;sensor_type;location;lat;lon;timestamp;pressure;altitude;pressure_sealevel;temperature;humidity
70242;BME280;57631;52.218;0.108;2022-09-14T00:02:24;100919.60;;;19.95;49.73
70242;BME280;57631;52.218;0.108;2022-09-14T00:04:50;100913.07;;;20.09;50.55
70242;BME280;57631;52.218;0.108;2022-09-14T00:07:15;100908.36;;;19.87;49.88
70242;BME280;57631;52.218;0.108;2022-09-14T00:09:40;100908.61;;;20.34;49.08
70242;BME280;57631;52.218;0.108;2022-09-14T00:12:06;100907.39;;;19.44;51.16
70242;BME280;57631;52.218;0.108;2022-09-14T00:14:32;100905.60;;;19.53;51.58
70242;BME280;57631;52.218;0.108;2022-09-14T00:16:56;100900.26;;;19.76;50.55
70242;BME280;57631;52.218;0.108;2022-09-14T00:19:24;100901.03;;;19.74;50.69
70242;BME280;57631;52.218;0.108;2022-09-14T00:21:50;100902.91;;;19.95;49.61
70242;BME280;57631;52.218;0.108;2022-09-14T00:24:13;100900.40;;;20.09;49.54
70242;BME280;57631;52.218;0.108;2022-09-14T00:26:38;100898.69;;;20.39;48.60
70242;BME280;57631;52.218;0.108;2022-09-14T00:29:04;100893.94;;;20.24;49.17
70242;BME280;57631;52.218;0.108;2022-09-14T00:31:30;100886.03;;;19.58;50.18
70242;BME280;57631;52.218;0.108;2022-09-14T00:33:54;100881.64;;;19.54;50.02
70242;BME280;57631;52.218;0.108;2022-09-14T00:36:22;100879.26;;;20.06;48.98
70242;BME280;57631;52.218;0.108;2022-09-14T00:38:46;100871.81;;;19.40;51.40
70242;BME280;57631;52.218;0.108;2022-09-14T00:41:14;100870.14;;;18.91;52.28
70242;BME280;57631;52.218;0.108;2022-09-14T00:46:01;100861.17;;;19.64;50.10
70242;BME280;57631;52.218;0.108;2022-09-14T00:48:28;100856.25;;;19.53;50.18
70242;BME280;57631;52.218;0.108;2022-09-14T00:50:52;100854.28;;;19.39;51.23
70242;BME280;57631;52.218;0.108;2022-09-14T00:53:17;100849.41;;;18.99;52.16
70242;BME280;57631;52.218;0.108;2022-09-14T00:55:43;100845.85;;;19.13;51.95
70242;BME280;57631;52.218;0.108;2022-09-14T00:58:08;100839.06;;;19.44;51.20
70242;BME280;57631;52.218;0.108;2022-09-14T01:00:34;100835.81;;;19.79;50.32
70242;BME280;57631;52.218;0.108;2022-09-14T01:02:59;100838.23;;;19.21;51.49
70242;BME280;57631;52.218;0.108;2022-09-14T01:05:32;100836.36;;;19.49;50.61
70242;BME280;57631;52.218;0.108;2022-09-14T01:08:01;100835.48;;;19.23;51.48
70242;BME280;57631;52.218;0.108;2022-09-14T01:10:27;100835.94;;;19.40;51.26
70242;BME280;57631;52.218;0.108;2022-09-14T01:12:50;100834.91;;;19.19;51.14
70242;BME280;57631;52.218;0.108;2022-09-14T01:15:11;100834.90;;;19.37;50.21
70242;BME280;57631;52.218;0.108;2022-09-14T01:17:37;100833.14;;;19.57;50.08
70242;BME280;57631;52.218;0.108;2022-09-14T01:20:10;100825.83;;;19.71;50.13
70242;BME280;57631;52.218;0.108;2022-09-14T01:22:32;100824.63;;;19.67;50.04
70242;BME280;57631;52.218;0.108;2022-09-14T01:24:52;100827.47;;;19.52;51.05
70242;BME280;57631;52.218;0.108;2022-09-14T01:27:21;100831.26;;;19.19;52.03
70242;BME280;57631;52.218;0.108;2022-09-14T01:29:41;100829.93;;;18.92;52.54
70242;BME280;57631;52.218;0.108;2022-09-14T01:32:07;100831.51;;;19.22;52.09
70242;BME280;57631;52.218;0.108;2022-09-14T01:34:33;100833.43;;;19.56;51.29
70242;BME280;57631;52.218;0.108;2022-09-14T01:36:58;100833.37;;;19.40;51.73
70242;BME280;57631;52.218;0.108;2022-09-14T01:39:21;100829.13;;;19.33;50.82
70242;BME280;57631;52.218;0.108;2022-09-14T01:41:46;100824.70;;;19.83;50.83
70242;BME280;57631;52.218;0.108;2022-09-14T01:44:14;100819.69;;;19.59;51.06
70242;BME280;57631;52.218;0.108;2022-09-14T01:46:40;100816.65;;;19.14;52.33
70242;BME280;57631;52.218;0.108;2022-09-14T01:49:06;100815.29;;;18.74;53.24
70242;BME280;57631;52.218;0.108;2022-09-14T01:51:31;100810.93;;;18.71;53.22
70242;BME280;57631;52.218;0.108;2022-09-14T01:53:56;100810.58;;;18.86;52.99
70242;BME280;57631;52.218;0.108;2022-09-14T01:56:22;100806.82;;;18.66;53.31
70242;BME280;57631;52.218;0.108;2022-09-14T01:58:45;100803.13;;;19.01;53.58
70242;BME280;57631;52.218;0.108;2022-09-14T02:01:10;100805.92;;;18.61;53.50
70242;BME280;57631;52.218;0.108;2022-09-14T02:03:37;100804.51;;;18.86;52.71
70242;BME280;57631;52.218;0.108;2022-09-14T02:06:04;100803.52;;;18.84;53.00
70242;BME280;57631;52.218;0.108;2022-09-14T02:08:26;100802.63;;;18.91;53.56
70242;BME280;57631;52.218;0.108;2022-09-14T02:10:50;100798.12;;;18.54;53.87
70242;BME280;57631;52.218;0.108;2022-09-14T02:13:16;100791.32;;;18.39;54.96
70242;BME280;57631;52.218;0.108;2022-09-14T02:15:41;100788.91;;;17.87;56.21
70242;BME280;57631;52.218;0.108;2022-09-14T02:18:06;100790.75;;;18.21;55.98
70242;BME280;57631;52.218;0.108;2022-09-14T02:20:36;100790.15;;;17.94;56.07
70242;BME280;57631;52.218;0.108;2022-09-14T02:22:57;100785.33;;;17.92;56.22
70242;BME280;57631;52.218;0.108;2022-09-14T02:25:22;100776.45;;;17.77;57.03
70242;BME280;57631;52.218;0.108;2022-09-14T02:27:48;100771.71;;;17.91;56.80
70242;BME280;57631;52.218;0.108;2022-09-14T02:30:14;100770.02;;;18.11;56.39
70242;BME280;57631;52.218;0.108;2022-09-14T02:32:45;100768.85;;;17.92;56.22
70242;BME280;57631;52.218;0.108;2022-09-14T02:35:10;100769.37;;;17.50;57.57
70242;BME280;57631;52.218;0.108;2022-09-14T02:37:36;100765.81;;;18.06;56.30
70242;BME280;57631;52.218;0.108;2022-09-14T02:40:00;100766.04;;;18.16;55.98
70242;BME280;57631;52.218;0.108;2022-09-14T02:42:25;100766.79;;;17.80;57.50
70242;BME280;57631;52.218;0.108;2022-09-14T02:44:53;100767.95;;;17.62;57.77
70242;BME280;57631;52.218;0.108;2022-09-14T02:47:16;100768.05;;;17.62;58.67
70242;BME280;57631;52.218;0.108;2022-09-14T02:49:43;100764.01;;;16.89;59.49
70242;BME280;57631;52.218;0.108;2022-09-14T02:52:06;100763.35;;;17.22;59.54
70242;BME280;57631;52.218;0.108;2022-09-14T02:54:30;100763.70;;;17.13;58.50
70242;BME280;57631;52.218;0.108;2022-09-14T02:56:52;100761.40;;;17.92;57.81
70242;BME280;57631;52.218;0.108;2022-09-14T02:59:18;100764.07;;;17.48;58.18
70242;BME280;57631;52.218;0.108;2022-09-14T03:01:43;100760.10;;;17.83;57.29
70242;BME280;57631;52.218;0.108;2022-09-14T03:04:08;100762.68;;;17.61;57.52
70242;BME280;57631;52.218;0.108;2022-09-14T03:06:34;100762.31;;;17.52;57.17
70242;BME280;57631;52.218;0.108;2022-09-14T03:08:59;100765.83;;;17.95;56.76
70242;BME280;57631;52.218;0.108;2022-09-14T03:11:25;100765.65;;;18.30;55.63
70242;BME280;57631;52.218;0.108;2022-09-14T03:13:50;100765.31;;;18.07;55.87
70242;BME280;57631;52.218;0.108;2022-09-14T03:16:16;100760.29;;;18.15;55.31
70242;BME280;57631;52.218;0.108;2022-09-14T03:18:41;100756.30;;;17.84;56.78
70242;BME280;57631;52.218;0.108;2022-09-14T03:21:08;100757.37;;;17.33;58.63
70242;BME280;57631;52.218;0.108;2022-09-14T03:23:35;100758.78;;;16.64;59.96
70242;BME280;57631;52.218;0.108;2022-09-14T03:25:57;100759.38;;;17.05;58.94
70242;BME280;57631;52.218;0.108;2022-09-14T03:28:23;100755.06;;;17.62;57.55
70242;BME280;57631;52.218;0.108;2022-09-14T03:30:48;100751.96;;;17.63;56.53
70242;BME280;57631;52.218;0.108;2022-09-14T03:33:13;100748.36;;;17.97;56.74
70242;BME280;57631;52.218;0.108;2022-09-14T03:35:39;100743.27;;;17.52;56.93
70242;BME280;57631;52.218;0.108;2022-09-14T03:38:04;100735.05;;;17.64;57.29
70242;BME280;57631;52.218;0.108;2022-09-14T03:40:30;100729.45;;;17.95;57.33
70242;BME280;57631;52.218;0.108;2022-09-14T03:42:55;100732.12;;;17.89;56.78
70242;BME280;57631;52.218;0.108;2022-09-14T03:45:21;100733.43;;;18.10;55.94
70242;BME280;57631;52.218;0.108;2022-09-14T03:47:47;100735.45;;;18.09;55.24
70242;BME280;57631;52.218;0.108;2022-09-14T03:50:13;100735.37;;;18.21;55.20
70242;BME280;57631;52.218;0.108;2022-09-14T03:52:37;100735.06;;;17.63;56.80
70242;BME280;57631;52.218;0.108;2022-09-14T03:55:04;100734.06;;;17.58;57.31
70242;BME280;57631;52.218;0.108;2022-09-14T03:57:28;100735.57;;;17.81;56.68
70242;BME280;57631;52.218;0.108;2022-09-14T03:59:53;100737.60;;;17.91;57.19
70242;BME280;57631;52.218;0.108;2022-09-14T04:02:19;100741.34;;;17.98;56.43
70242;BME280;57631;52.218;0.108;2022-09-14T04:04:44;100740.04;;;17.96;56.42
70242;BME280;57631;52.218;0.108;2022-09-14T04:07:10;100738.20;;;17.87;57.16
70242;BME280;57631;52.218;0.108;2022-09-14T04:09:35;100738.20;;;17.65;57.74
70242;BME280;57631;52.218;0.108;2022-09-14T04:12:01;100739.66;;;17.67;57.36
70242;BME280;57631;52.218;0.108;2022-09-14T04:14:26;100738.24;;;17.27;58.22
70242;BME280;57631;52.218;0.108;2022-09-14T04:16:51;100737.06;;;17.24;57.62
70242;BME280;57631;52.218;0.108;2022-09-14T04:19:17;100739.87;;;17.38;57.84
70242;BME280;57631;52.218;0.108;2022-09-14T04:21:42;100738.66;;;17.37;57.11
70242;BME280;57631;52.218;0.108;2022-09-14T04:24:11;100738.18;;;17.71;56.62
70242;BME280;57631;52.218;0.108;2022-09-14T04:26:34;100739.23;;;17.45;56.25
70242;BME280;57631;52.218;0.108;2022-09-14T04:28:59;100742.35;;;17.63;57.17
70242;BME280;57631;52.218;0.108;2022-09-14T04:31:24;100745.55;;;17.10;57.56
70242;BME280;57631;52.218;0.108;2022-09-14T04:33:49;100743.08;;;17.21;56.89
70242;BME280;57631;52.218;0.108;2022-09-14T04:36:17;100743.67;;;17.76;56.60
70242;BME280;57631;52.218;0.108;2022-09-14T04:38:41;100746.15;;;17.16;57.37
70242;BME280;57631;52.218;0.108;2022-09-14T04:41:07;100739.98;;;17.26;56.90
70242;BME280;57631;52.218;0.108;2022-09-14T04:43:32;100739.39;;;17.08;57.49
70242;BME280;57631;52.218;0.108;2022-09-14T04:46:00;100733.82;;;17.31;57.65
70242;BME280;57631;52.218;0.108;2022-09-14T04:48:21;100733.52;;;16.80;58.65
70242;BME280;57631;52.218;0.108;2022-09-14T04:50:47;100732.58;;;17.10;57.95
70242;BME280;57631;52.218;0.108;2022-09-14T04:53:12;100733.20;;;17.21;57.89
70242;BME280;57631;52.218;0.108;2022-09-14T04:55:38;100734.46;;;17.03;57.61
70242;BME280;57631;52.218;0.108;2022-09-14T04:58:03;100727.47;;;17.04;56.72
70242;BME280;57631;52.218;0.108;2022-09-14T05:00:29;100726.50;;;17.10;57.01
70242;BME280;57631;52.218;0.108;2022-09-14T05:02:54;100725.73;;;17.30;56.64
70242;BME280;57631;52.218;0.108;2022-09-14T05:05:19;100726.20;;;17.40;55.79
70242;BME280;57631;52.218;0.108;2022-09-14T05:07:45;100728.17;;;17.32;55.72
70242;BME280;57631;52.218;0.108;2022-09-14T05:10:10;100726.88;;;17.32;55.96
70242;BME280;57631;52.218;0.108;2022-09-14T05:12:36;100723.37;;;17.65;55.81
70242;BME280;57631;52.218;0.108;2022-09-14T05:15:01;100719.17;;;17.68;55.20
70242;BME280;57631;52.218;0.108;2022-09-14T05:17:26;100716.54;;;17.47;55.45
70242;BME280;57631;52.218;0.108;2022-09-14T05:19:52;100716.49;;;17.31;56.22
70242;BME280;57631;52.218;0.108;2022-09-14T05:22:17;100714.67;;;17.91;55.63
70242;BME280;57631;52.218;0.108;2022-09-14T05:24:42;100711.52;;;17.36;56.16
70242;BME280;57631;52.218;0.108;2022-09-14T05:27:08;100712.65;;;17.64;55.72
70242;BME280;57631;52.218;0.108;2022-09-14T05:29:33;100711.66;;;17.31;56.05
70242;BME280;57631;52.218;0.108;2022-09-14T05:31:59;100708.53;;;17.04;57.17
70242;BME280;57631;52.218;0.108;2022-09-14T05:34:24;100707.34;;;17.58;56.38
70242;BME280;57631;52.218;0.108;2022-09-14T05:36:49;100706.97;;;17.34;56.46
70242;BME280;57631;52.218;0.108;2022-09-14T05:39:15;100705.76;;;17.51;55.85
70242;BME280;57631;52.218;0.108;2022-09-14T05:41:40;100704.94;;;17.37;56.01
70242;BME280;57631;52.218;0.108;2022-09-14T05:44:06;100706.36;;;17.89;54.43
70242;BME280;57631;52.218;0.108;2022-09-14T05:46:32;100706.45;;;17.88;54.49
70242;BME280;57631;52.218;0.108;2022-09-14T05:48:57;100711.93;;;17.79;54.55
70242;BME280;57631;52.218;0.108;2022-09-14T05:51:23;100715.67;;;17.77;55.13
70242;BME280;57631;52.218;0.108;2022-09-14T05:53:48;100715.43;;;17.35;56.48
70242;BME280;57631;52.218;0.108;2022-09-14T05:56:13;100714.66;;;17.51;55.59
70242;BME280;57631;52.218;0.108;2022-09-14T05:58:39;100714.26;;;17.54;55.97
70242;BME280;57631;52.218;0.108;2022-09-14T06:01:08;100717.83;;;17.13;56.84
70242;BME280;57631;52.218;0.108;2022-09-14T06:03:29;100715.89;;;17.35;56.25
70242;BME280;57631;52.218;0.108;2022-09-14T06:05:56;100718.39;;;17.36;56.51
70242;BME280;57631;52.218;0.108;2022-09-14T06:08:20;100722.39;;;17.48;55.75
70242;BME280;57631;52.218;0.108;2022-09-14T06:10:45;100723.46;;;17.87;55.19
70242;BME280;57631;52.218;0.108;2022-09-14T06:13:10;100724.02;;;17.84;55.36
70242;BME280;57631;52.218;0.108;2022-09-14T06:15:36;100722.21;;;17.89;54.73
70242;BME280;57631;52.218;0.108;2022-09-14T06:18:01;100724.69;;;17.84;54.64
70242;BME280;57631;52.218;0.108;2022-09-14T06:20:26;100725.46;;;17.78;55.31
70242;BME280;57631;52.218;0.108;2022-09-14T06:22:52;100725.56;;;17.81;54.21
70242;BME280;57631;52.218;0.108;2022-09-14T06:25:17;100724.27;;;17.88;54.35
70242;BME280;57631;52.218;0.108;2022-09-14T06:27:43;100724.43;;;18.02;53.78
70242;BME280;57631;52.218;0.108;2022-09-14T06:30:09;100724.32;;;17.77;54.76
70242;BME280;57631;52.218;0.108;2022-09-14T06:32:34;100722.26;;;18.02;54.14
70242;BME280;57631;52.218;0.108;2022-09-14T06:34:59;100725.36;;;18.36;53.18
70242;BME280;57631;52.218;0.108;2022-09-14T06:37:24;100723.52;;;18.17;53.95
70242;BME280;57631;52.218;0.108;2022-09-14T06:39:50;100725.27;;;18.07;53.53
70242;BME280;57631;52.218;0.108;2022-09-14T06:42:15;100728.73;;;18.44;53.20
70242;BME280;57631;52.218;0.108;2022-09-14T06:44:41;100728.82;;;17.54;55.67
70242;BME280;57631;52.218;0.108;2022-09-14T06:47:06;100726.95;;;17.83;54.96
70242;BME280;57631;52.218;0.108;2022-09-14T06:49:32;100729.46;;;17.97;55.21
70242;BME280;57631;52.218;0.108;2022-09-14T06:51:57;100730.78;;;17.80;55.07
70242;BME280;57631;52.218;0.108;2022-09-14T06:54:22;100734.73;;;16.95;57.23
70242;BME280;57631;52.218;0.108;2022-09-14T06:56:47;100729.86;;;17.59;56.96
70242;BME280;57631;52.218;0.108;2022-09-14T06:59:14;100728.29;;;17.46;55.65
70242;BME280;57631;52.218;0.108;2022-09-14T07:01:40;100731.27;;;17.66;55.52
70242;BME280;57631;52.218;0.108;2022-09-14T07:04:04;100731.47;;;17.56;57.33
70242;BME280;57631;52.218;0.108;2022-09-14T07:06:31;100733.30;;;17.65;56.31
70242;BME280;57631;52.218;0.108;2022-09-14T07:08:54;100734.81;;;17.70;55.90
70242;BME280;57631;52.218;0.108;2022-09-14T07:11:21;100733.94;;;17.56;55.87
70242;BME280;57631;52.218;0.108;2022-09-14T07:13:46;100737.26;;;17.73;55.93
70242;BME280;57631;52.218;0.108;2022-09-14T07:16:11;100744.59;;;17.82;55.97
70242;BME280;57631;52.218;0.108;2022-09-14T07:18:36;100747.08;;;17.65;55.95
70242;BME280;57631;52.218;0.108;2022-09-14T07:21:02;100749.57;;;18.04;55.76
70242;BME280;57631;52.218;0.108;2022-09-14T07:23:27;100747.43;;;18.10;54.85
70242;BME280;57631;52.218;0.108;2022-09-14T07:25:58;100746.87;;;17.98;55.06
70242;BME280;57631;52.218;0.108;2022-09-14T07:28:17;100743.05;;;18.36;54.43
70242;BME280;57631;52.218;0.108;2022-09-14T07:30:43;100743.32;;;17.99;55.47
70242;BME280;57631;52.218;0.108;2022-09-14T07:33:08;100748.37;;;17.88;56.08
70242;BME280;57631;52.218;0.108;2022-09-14T07:35:33;100745.26;;;18.02;55.70
70242;BME280;57631;52.218;0.108;2022-09-14T07:37:59;100745.06;;;17.86;56.26
70242;BME280;57631;52.218;0.108;2022-09-14T07:40:24;100741.73;;;18.12;55.52
70242;BME280;57631;52.218;0.108;2022-09-14T07:42:50;100742.37;;;18.43;54.97
70242;BME280;57631;52.218;0.108;2022-09-14T07:45:15;100742.98;;;18.47;53.86
70242;BME280;57631;52.218;0.108;2022-09-14T07:47:41;100742.10;;;18.64;53.64
70242;BME280;57631;52.218;0.108;2022-09-14T07:50:07;100742.52;;;18.62;53.32
70242;BME280;57631;52.218;0.108;2022-09-14T07:52:32;100739.55;;;18.56;53.26
70242;BME280;57631;52.218;0.108;2022-09-14T07:54:57;100737.54;;;18.84;52.77
70242;BME280;57631;52.218;0.108;2022-09-14T07:57:27;100738.53;;;18.87;53.19
70242;BME280;57631;52.218;0.108;2022-09-14T07:59:52;100738.55;;;18.53;55.10
70242;BME280;57631;52.218;0.108;2022-09-14T08:02:15;100735.73;;;18.22;54.88
70242;BME280;57631;52.218;0.108;2022-09-14T08:04:38;100732.84;;;18.41;53.94
70242;BME280;57631;52.218;0.108;2022-09-14T08:07:04;100731.46;;;18.06;55.27
70242;BME280;57631;52.218;0.108;2022-09-14T08:09:29;100734.19;;;18.69;54.63
70242;BME280;57631;52.218;0.108;2022-09-14T08:11:55;100738.13;;;18.87;54.82
70242;BME280;57631;52.218;0.108;2022-09-14T08:14:20;100736.70;;;19.00;53.01
70242;BME280;57631;52.218;0.108;2022-09-14T08:16:46;100735.77;;;19.22;52.70
70242;BME280;57631;52.218;0.108;2022-09-14T08:19:14;100733.34;;;19.60;51.29
70242;BME280;57631;52.218;0.108;2022-09-14T08:21:36;100731.42;;;19.72;50.78
70242;BME280;57631;52.218;0.108;2022-09-14T08:24:02;100733.12;;;19.18;53.10
70242;BME280;57631;52.218;0.108;2022-09-14T08:26:27;100730.31;;;19.25;54.40
70242;BME280;57631;52.218;0.108;2022-09-14T08:28:53;100726.99;;;18.77;54.75
70242;BME280;57631;52.218;0.108;2022-09-14T08:31:19;100730.29;;;19.30;53.54
70242;BME280;57631;52.218;0.108;2022-09-14T08:33:44;100732.76;;;19.53;52.15
70242;BME280;57631;52.218;0.108;2022-09-14T08:36:10;100735.78;;;19.58;52.05
70242;BME280;57631;52.218;0.108;2022-09-14T08:38:33;100733.41;;;19.63;51.02
70242;BME280;57631;52.218;0.108;2022-09-14T08:41:08;100729.91;;;20.02;49.64
70242;BME280;57631;52.218;0.108;2022-09-14T08:43:25;100730.77;;;20.44;48.82
70242;BME280;57631;52.218;0.108;2022-09-14T08:45:51;100732.94;;;19.99;48.61
70242;BME280;57631;52.218;0.108;2022-09-14T08:48:20;100733.65;;;20.61;48.30
70242;BME280;57631;52.218;0.108;2022-09-14T08:50:40;100734.92;;;20.09;48.81
70242;BME280;57631;52.218;0.108;2022-09-14T08:53:07;100735.50;;;20.55;48.68
70242;BME280;57631;52.218;0.108;2022-09-14T08:55:36;100730.52;;;20.73;47.85
70242;BME280;57631;52.218;0.108;2022-09-14T08:58:01;100730.12;;;20.81;47.54
70242;BME280;57631;52.218;0.108;2022-09-14T09:00:24;100732.51;;;20.61;48.10
70242;BME280;57631;52.218;0.108;2022-09-14T09:05:22;100731.50;;;21.00;47.85
70242;BME280;57631;52.218;0.108;2022-09-14T09:07:41;100731.42;;;20.78;48.39
70242;BME280;57631;52.218;0.108;2022-09-14T09:10:05;100727.00;;;21.42;46.56
70242;BME280;57631;52.218;0.108;2022-09-14T09:12:35;100731.05;;;21.87;45.48
70242;BME280;57631;52.218;0.108;2022-09-14T09:14:58;100725.50;;;22.12;44.32
70242;BME280;57631;52.218;0.108;2022-09-14T09:17:24;100728.16;;;22.48;44.05
70242;BME280;57631;52.218;0.108;2022-09-14T09:19:54;100727.42;;;22.72;43.60
70242;BME280;57631;52.218;0.108;2022-09-14T09:22:16;100730.08;;;21.72;45.35
70242;BME280;57631;52.218;0.108;2022-09-14T09:24:38;100728.67;;;21.24;46.71
70242;BME280;57631;52.218;0.108;2022-09-14T09:27:03;100727.33;;;21.51;46.21
70242;BME280;57631;52.218;0.108;2022-09-14T09:29:27;100729.69;;;21.94;45.37
70242;BME280;57631;52.218;0.108;2022-09-14T09:31:54;100726.41;;;21.75;45.53
70242;BME280;57631;52.218;0.108;2022-09-14T09:34:24;100721.00;;;22.13;44.99
70242;BME280;57631;52.218;0.108;2022-09-14T09:36:46;100724.40;;;21.48;47.48
70242;BME280;57631;52.218;0.108;2022-09-14T09:39:08;100725.10;;;21.83;46.16
70242;BME280;57631;52.218;0.108;2022-09-14T09:41:41;100721.82;;;22.37;44.37
70242;BME280;57631;52.218;0.108;2022-09-14T09:44:01;100716.61;;;22.83;43.62
70242;BME280;57631;52.218;0.108;2022-09-14T09:46:24;100718.03;;;23.37;42.43
70242;BME280;57631;52.218;0.108;2022-09-14T09:48:50;100714.02;;;23.11;42.51
70242;BME280;57631;52.218;0.108;2022-09-14T09:51:25;100711.78;;;22.44;43.91
70242;BME280;57631;52.218;0.108;2022-09-14T09:53:47;100707.72;;;23.13;42.81
70242;BME280;57631;52.218;0.108;2022-09-14T09:56:06;100707.88;;;23.94;40.28
70242;BME280;57631;52.218;0.108;2022-09-14T09:58:34;100706.77;;;23.43;40.45
70242;BME280;57631;52.218;0.108;2022-09-14T10:00:58;100704.00;;;24.35;39.72
70242;BME280;57631;52.218;0.108;2022-09-14T10:03:28;100709.29;;;24.11;40.76
70242;BME280;57631;52.218;0.108;2022-09-14T10:05:54;100707.07;;;24.97;38.29
70242;BME280;57631;52.218;0.108;2022-09-14T10:08:14;100704.82;;;25.14;38.48
70242;BME280;57631;52.218;0.108;2022-09-14T10:10:40;100704.87;;;25.81;37.19
70242;BME280;57631;52.218;0.108;2022-09-14T10:13:05;100701.53;;;25.84;36.99
70242;BME280;57631;52.218;0.108;2022-09-14T10:15:29;100709.54;;;24.38;39.61
70242;BME280;57631;52.218;0.108;2022-09-14T10:18:00;100700.25;;;24.88;38.30
70242;BME280;57631;52.218;0.108;2022-09-14T10:20:21;100698.22;;;25.04;38.67
70242;BME280;57631;52.218;0.108;2022-09-14T10:22:44;100704.00;;;24.48;39.21
70242;BME280;57631;52.218;0.108;2022-09-14T10:27:38;100694.49;;;26.73;34.62
70242;BME280;57631;52.218;0.108;2022-09-14T10:30:02;100693.37;;;26.99;34.27
70242;BME280;57631;52.218;0.108;2022-09-14T10:32:26;100698.47;;;27.99;32.91
70242;BME280;57631;52.218;0.108;2022-09-14T10:34:51;100694.50;;;28.00;32.91
70242;BME280;57631;52.218;0.108;2022-09-14T10:37:25;100696.97;;;25.95;36.59
70242;BME280;57631;52.218;0.108;2022-09-14T10:39:45;100691.14;;;26.46;35.26
70242;BME280;57631;52.218;0.108;2022-09-14T10:42:13;100694.27;;;25.65;36.85
70242;BME280;57631;52.218;0.108;2022-09-14T10:44:45;100697.48;;;25.35;38.01
70242;BME280;57631;52.218;0.108;2022-09-14T10:47:09;100683.59;;;26.98;34.26
70242;BME280;57631;52.218;0.108;2022-09-14T10:49:31;100683.37;;;27.67;33.36
70242;BME280;57631;52.218;0.108;2022-09-14T10:51:56;100682.19;;;26.96;33.88
70242;BME280;57631;52.218;0.108;2022-09-14T10:54:25;100680.76;;;28.45;32.45
70242;BME280;57631;52.218;0.108;2022-09-14T10:56:46;100681.72;;;29.11;31.03
70242;BME280;57631;52.218;0.108;2022-09-14T10:59:11;100675.27;;;28.43;31.85
70242;BME280;57631;52.218;0.108;2022-09-14T11:01:41;100669.81;;;28.62;31.17
70242;BME280;57631;52.218;0.108;2022-09-14T11:04:05;100674.90;;;28.90;30.44
70242;BME280;57631;52.218;0.108;2022-09-14T11:06:32;100672.58;;;28.41;31.33
70242;BME280;57631;52.218;0.108;2022-09-14T11:08:51;100679.06;;;28.97;30.69
70242;BME280;57631;52.218;0.108;2022-09-14T11:11:21;100676.28;;;28.20;31.60
70242;BME280;57631;52.218;0.108;2022-09-14T11:13:45;100677.16;;;26.87;33.70
70242;BME280;57631;52.218;0.108;2022-09-14T11:16:08;100674.86;;;27.37;33.67
70242;BME280;57631;52.218;0.108;2022-09-14T11:18:31;100669.60;;;28.55;31.79
70242;BME280;57631;52.218;0.108;2022-09-14T11:21:01;100673.44;;;29.59;30.78
70242;BME280;57631;52.218;0.108;2022-09-14T11:23:32;100674.91;;;30.08;28.92
70242;BME280;57631;52.218;0.108;2022-09-14T11:25:46;100672.69;;;29.79;29.37
70242;BME280;57631;52.218;0.108;2022-09-14T11:28:11;100675.27;;;29.91;29.43
70242;BME280;57631;52.218;0.108;2022-09-14T11:30:38;100675.04;;;30.14;28.71
70242;BME280;57631;52.218;0.108;2022-09-14T11:33:03;100682.64;;;28.47;29.66
70242;BME280;57631;52.218;0.108;2022-09-14T11:35:28;100677.72;;;30.17;28.68
70242;BME280;57631;52.218;0.108;2022-09-14T11:37:54;100678.52;;;29.22;29.38
70242;BME280;57631;52.218;0.108;2022-09-14T11:40:19;100674.06;;;30.15;28.17
70242;BME280;57631;52.218;0.108;2022-09-14T11:42:48;100667.34;;;30.75;27.59
70242;BME280;57631;52.218;0.108;2022-09-14T11:45:13;100664.49;;;32.20;26.51
70242;BME280;57631;52.218;0.108;2022-09-14T11:47:36;100661.34;;;33.22;25.03
70242;BME280;57631;52.218;0.108;2022-09-14T11:50:00;100655.76;;;33.55;24.66
70242;BME280;57631;52.218;0.108;2022-09-14T11:52:25;100652.45;;;35.26;23.03
70242;BME280;57631;52.218;0.108;2022-09-14T11:54:48;100658.87;;;31.89;27.20
70242;BME280;57631;52.218;0.108;2022-09-14T11:57:16;100662.01;;;30.84;28.42
70242;BME280;57631;52.218;0.108;2022-09-14T12:04:28;100677.83;;;30.17;28.63
70242;BME280;57631;52.218;0.108;2022-09-14T12:06:56;100678.40;;;30.37;28.62
70242;BME280;57631;52.218;0.108;2022-09-14T12:11:45;100676.29;;;28.56;30.16
70242;BME280;57631;52.218;0.108;2022-09-14T12:14:21;100682.20;;;29.25;29.75
70242;BME280;57631;52.218;0.108;2022-09-14T12:19:00;100679.01;;;27.46;32.31
70242;BME280;57631;52.218;0.108;2022-09-14T12:21:25;100675.20;;;28.18;31.34
70242;BME280;57631;52.218;0.108;2022-09-14T12:23:52;100674.98;;;28.80;31.10
70242;BME280;57631;52.218;0.108;2022-09-14T12:28:44;100671.14;;;30.16;28.23
70242;BME280;57631;52.218;0.108;2022-09-14T12:31:11;100660.74;;;31.99;26.19
70242;BME280;57631;52.218;0.108;2022-09-14T12:33:40;100657.24;;;32.82;24.54
70242;BME280;57631;52.218;0.108;2022-09-14T12:35:58;100659.95;;;31.83;25.91
70242;BME280;57631;52.218;0.108;2022-09-14T12:40:48;100661.44;;;31.00;26.33
70242;BME280;57631;52.218;0.108;2022-09-14T12:45:47;100662.23;;;31.43;25.99
70242;BME280;57631;52.218;0.108;2022-09-14T12:48:07;100659.24;;;31.25;25.71
70242;BME280;57631;52.218;0.108;2022-09-14T12:50:32;100656.41;;;32.27;24.77
70242;BME280;57631;52.218;0.108;2022-09-14T12:55:33;100652.69;;;31.50;24.53
70242;BME280;57631;52.218;0.108;2022-09-14T12:57:50;100648.07;;;33.05;23.59
70242;BME280;57631;52.218;0.108;2022-09-14T13:00:14;100646.26;;;33.96;22.46
70242;BME280;57631;52.218;0.108;2022-09-14T13:02:47;100641.57;;;34.43;22.56
70242;BME280;57631;52.218;0.108;2022-09-14T13:05:02;100645.89;;;34.07;22.25
70242;BME280;57631;52.218;0.108;2022-09-14T13:07:32;100642.76;;;34.34;22.52